Aeroporto :
LOGIN :

Iscrizione | Disclaimer

   EN    FR    IT 

 










Sommario :    VFR   VFR Marginale   IFR   IFR Intensivo   IFR Molto Intensivo
Visibilità : 
Base nubi : 
>= 8 km
>= 3000ft
5 / 8 km
1000 / 3000 ft
1500m / 5 km
500 / 1000 ft
800 / 1500m
200 / 500 ft
< 800m
< 200 ft
Simboli :   Temporali  Nebbia  Neve Forte  Precipitazioni Forti  Vento > 20 kt
SIGMETs :   Varie  Temporali  Ghiacco  Turbolenza  Onda orograficha  Ceneri Vulcaniche






- Altitudine del aeroporto : 659 ft
- Codice IATA : LGG


EBLG - Liège

ULTIMO METAR :
  • 192250Z 20013KT 9999 BKN024 05/02 Q1006 TEMPO 21017G27KT

METARs OBSOLETI :
  • 192220Z 20013KT 9999 FEW022 05/02 Q1007 TEMPO 21017G27KT
  • 192150Z 20014KT 9999 BKN022 05/02 Q1007 TEMPO 21017G27KT
  • 192120Z 21015KT 9999 BKN014 05/03 Q1008 TEMPO 21017G27KT
  • 192050Z 21017KT 9999 BKN012 05/03 Q1008 TEMPO 21017G27KT

TAF TAF EBLG
Valido dal 19 a 18 ore il 21 a 00 ore UTC


191704Z 1918/2024 21015G25KT 9999 BKN012
PROB30
TEMPO 1918/1920 4000 -RADZ BKN007
BECMG 1921/1923 SCT015 BKN030



MetMap, La meteo Aeronautica in un colpo d'occhio ! - Copyright ORBIFLY Dicembre 2007 - Disclaimer

ORBIFLY MET'MAP TEAM :

Programmazione e sviluppo : Alexandra Zaïnal
Concezione : Baudouin d'Aumeries
Aiuto per la programmazione : Marc-Olivier Méhu
Supporto tecnico e logistico : Manuel Goepfert
Aiuto per la traduzione : Arnaldo La Scala

Contatto : metmap@orbifly.com




FONTI E CREDITI :

   NOAA